Keresley, United Kingdom
Current Conditions -  °F | °C
As of 8:20 AM on Thursday 29 Jan 2015 (Local Time) from EGBE Reporting Station
Scattered Clouds Scattered Clouds  
Wind Chill: 26°   Ceiling: Unl
Heat Index: 36°   Visibility: 6mi
Dew Point: 34°   Wind: 15mph
Humidity: 93%   Direction: 240°WSW
Pressure: 29.12"   Gusts: NA
Location:  52.45°N, 1.53°W
Report Text: EGBE 290820Z 24013KT 9999 SCT017 02/01 Q0986
Loading
Personal Weather Stations






























Interactive Weather Map New forecast layout! Learn more

10-Day Weather Forecast

Advertisements
Track Severe Weather on mobile